sensor_id;sensor_type;location;lat;lon;timestamp;noise_LAeq;noise_LA_min;noise_LA_max;noise_LA01;noise_LA95
77134;Laerm;25175;50.140;18.990;2024-01-15T00:01:27;39.51;33.85;59.12;;
77134;Laerm;25175;50.140;18.990;2024-01-15T00:04:37;43.53;34.63;69.55;;
77134;Laerm;25175;50.140;18.990;2024-01-15T00:07:42;39.48;33.61;61.65;;
77134;Laerm;25175;50.140;18.990;2024-01-15T00:10:48;39.79;33.99;60.37;;
77134;Laerm;25175;50.140;18.990;2024-01-15T00:13:56;43.17;34.14;64.74;;
77134;Laerm;25175;50.140;18.990;2024-01-15T00:17:01;46.40;33.71;71.43;;
77134;Laerm;25175;50.140;18.990;2024-01-15T00:20:10;38.43;33.91;57.09;;
77134;Laerm;25175;50.140;18.990;2024-01-15T00:23:19;38.66;33.17;57.19;;
77134;Laerm;25175;50.140;18.990;2024-01-15T00:26:24;39.57;33.50;60.76;;
77134;Laerm;25175;50.140;18.990;2024-01-15T00:29:34;41.86;34.06;60.99;;
77134;Laerm;25175;50.140;18.990;2024-01-15T00:32:39;40.74;33.66;62.45;;
77134;Laerm;25175;50.140;18.990;2024-01-15T00:35:45;37.17;33.37;54.34;;
77134;Laerm;25175;50.140;18.990;2024-01-15T00:38:53;41.11;33.63;60.46;;
77134;Laerm;25175;50.140;18.990;2024-01-15T00:42:02;46.92;33.52;73.52;;
77134;Laerm;25175;50.140;18.990;2024-01-15T00:45:13;38.32;34.31;56.78;;
77134;Laerm;25175;50.140;18.990;2024-01-15T00:48:21;44.56;34.06;67.13;;
77134;Laerm;25175;50.140;18.990;2024-01-15T00:51:26;44.46;34.15;66.22;;
77134;Laerm;25175;50.140;18.990;2024-01-15T00:54:32;40.33;33.96;61.30;;
77134;Laerm;25175;50.140;18.990;2024-01-15T00:57:37;40.01;33.86;64.74;;
77134;Laerm;25175;50.140;18.990;2024-01-15T01:00:46;43.72;34.36;65.41;;
77134;Laerm;25175;50.140;18.990;2024-01-15T01:03:51;44.98;33.82;69.48;;
77134;Laerm;25175;50.140;18.990;2024-01-15T01:06:56;46.18;34.47;67.51;;
77134;Laerm;25175;50.140;18.990;2024-01-15T01:10:05;44.06;34.14;66.28;;
77134;Laerm;25175;50.140;18.990;2024-01-15T01:13:15;42.38;34.40;62.67;;
77134;Laerm;25175;50.140;18.990;2024-01-15T01:16:25;45.16;34.54;66.46;;
77134;Laerm;25175;50.140;18.990;2024-01-15T01:19:30;39.09;35.13;56.25;;
77134;Laerm;25175;50.140;18.990;2024-01-15T01:22:35;43.37;34.45;62.83;;
77134;Laerm;25175;50.140;18.990;2024-01-15T01:25:42;38.43;33.97;57.55;;
77134;Laerm;25175;50.140;18.990;2024-01-15T01:28:48;39.14;34.40;60.91;;
77134;Laerm;25175;50.140;18.990;2024-01-15T01:31:56;36.85;33.32;49.39;;
77134;Laerm;25175;50.140;18.990;2024-01-15T01:35:01;38.85;34.18;60.63;;
77134;Laerm;25175;50.140;18.990;2024-01-15T01:38:08;39.00;33.91;60.24;;
77134;Laerm;25175;50.140;18.990;2024-01-15T01:41:13;41.05;34.17;64.80;;
77134;Laerm;25175;50.140;18.990;2024-01-15T01:44:18;43.61;35.23;71.20;;
77134;Laerm;25175;50.140;18.990;2024-01-15T01:47:28;46.67;35.53;69.04;;
77134;Laerm;25175;50.140;18.990;2024-01-15T01:50:42;45.03;36.10;67.07;;
77134;Laerm;25175;50.140;18.990;2024-01-15T01:53:47;46.82;35.52;67.81;;
77134;Laerm;25175;50.140;18.990;2024-01-15T01:56:53;41.12;34.88;60.37;;
77134;Laerm;25175;50.140;18.990;2024-01-15T01:59:59;49.44;35.80;72.77;;
77134;Laerm;25175;50.140;18.990;2024-01-15T02:03:19;50.06;34.53;72.29;;
77134;Laerm;25175;50.140;18.990;2024-01-15T02:06:24;53.43;34.64;82.10;;
77134;Laerm;25175;50.140;18.990;2024-01-15T02:09:29;41.22;34.64;60.10;;
77134;Laerm;25175;50.140;18.990;2024-01-15T02:12:36;41.73;35.54;60.35;;
77134;Laerm;25175;50.140;18.990;2024-01-15T02:15:42;50.28;35.52;72.02;;
77134;Laerm;25175;50.140;18.990;2024-01-15T02:18:50;43.12;34.84;67.19;;
77134;Laerm;25175;50.140;18.990;2024-01-15T02:21:55;44.75;35.12;65.05;;
77134;Laerm;25175;50.140;18.990;2024-01-15T02:25:04;50.77;35.82;73.83;;
77134;Laerm;25175;50.140;18.990;2024-01-15T02:28:11;45.93;36.22;71.02;;
77134;Laerm;25175;50.140;18.990;2024-01-15T02:31:19;45.58;34.98;66.21;;
77134;Laerm;25175;50.140;18.990;2024-01-15T02:34:26;53.62;35.58;76.47;;
77134;Laerm;25175;50.140;18.990;2024-01-15T02:37:34;50.71;35.11;76.69;;
77134;Laerm;25175;50.140;18.990;2024-01-15T02:40:44;45.59;35.05;71.79;;
77134;Laerm;25175;50.140;18.990;2024-01-15T02:43:51;46.10;35.88;65.81;;
77134;Laerm;25175;50.140;18.990;2024-01-15T02:46:55;50.86;36.58;75.24;;
77134;Laerm;25175;50.140;18.990;2024-01-15T02:50:00;47.65;36.48;67.89;;
77134;Laerm;25175;50.140;18.990;2024-01-15T02:53:06;50.07;36.23;73.26;;
77134;Laerm;25175;50.140;18.990;2024-01-15T02:56:15;41.29;34.82;60.30;;
77134;Laerm;25175;50.140;18.990;2024-01-15T02:59:21;49.75;35.53;75.81;;
77134;Laerm;25175;50.140;18.990;2024-01-15T03:02:29;43.82;35.13;64.62;;
77134;Laerm;25175;50.140;18.990;2024-01-15T03:05:35;48.32;35.15;72.39;;
77134;Laerm;25175;50.140;18.990;2024-01-15T03:08:41;43.18;35.84;69.40;;
77134;Laerm;25175;50.140;18.990;2024-01-15T03:11:48;39.57;34.66;56.52;;
77134;Laerm;25175;50.140;18.990;2024-01-15T03:14:56;42.19;35.30;65.96;;
77134;Laerm;25175;50.140;18.990;2024-01-15T03:18:01;47.13;35.84;69.53;;
77134;Laerm;25175;50.140;18.990;2024-01-15T03:21:07;52.98;35.69;78.96;;
77134;Laerm;25175;50.140;18.990;2024-01-15T03:24:12;53.60;36.60;73.37;;
77134;Laerm;25175;50.140;18.990;2024-01-15T03:27:20;50.41;36.36;71.73;;
77134;Laerm;25175;50.140;18.990;2024-01-15T03:30:26;53.58;36.74;72.07;;
77134;Laerm;25175;50.140;18.990;2024-01-15T03:33:31;47.81;35.70;71.91;;
77134;Laerm;25175;50.140;18.990;2024-01-15T03:36:36;46.71;35.69;69.28;;
77134;Laerm;25175;50.140;18.990;2024-01-15T03:39:43;44.29;35.76;69.21;;
77134;Laerm;25175;50.140;18.990;2024-01-15T03:42:50;41.42;35.49;64.59;;
77134;Laerm;25175;50.140;18.990;2024-01-15T03:45:55;43.54;35.24;68.55;;
77134;Laerm;25175;50.140;18.990;2024-01-15T03:49:02;45.91;34.90;65.52;;
77134;Laerm;25175;50.140;18.990;2024-01-15T03:52:07;47.28;35.44;69.42;;
77134;Laerm;25175;50.140;18.990;2024-01-15T03:55:12;51.40;35.42;75.55;;
77134;Laerm;25175;50.140;18.990;2024-01-15T03:58:22;44.49;36.44;68.96;;
77134;Laerm;25175;50.140;18.990;2024-01-15T04:01:33;42.81;35.53;67.80;;
77134;Laerm;25175;50.140;18.990;2024-01-15T04:04:43;48.40;36.54;73.84;;
77134;Laerm;25175;50.140;18.990;2024-01-15T04:07:48;45.04;36.79;67.16;;
77134;Laerm;25175;50.140;18.990;2024-01-15T04:10:55;53.42;36.35;78.56;;
77134;Laerm;25175;50.140;18.990;2024-01-15T04:14:03;57.90;36.75;83.53;;
77134;Laerm;25175;50.140;18.990;2024-01-15T04:17:10;51.15;36.06;79.35;;
77134;Laerm;25175;50.140;18.990;2024-01-15T04:20:14;49.88;37.35;75.25;;
77134;Laerm;25175;50.140;18.990;2024-01-15T04:23:21;42.16;36.28;62.54;;
77134;Laerm;25175;50.140;18.990;2024-01-15T04:26:26;46.30;36.93;72.74;;
77134;Laerm;25175;50.140;18.990;2024-01-15T04:29:37;42.57;37.26;57.92;;
77134;Laerm;25175;50.140;18.990;2024-01-15T04:32:42;47.02;36.35;66.11;;
77134;Laerm;25175;50.140;18.990;2024-01-15T04:35:47;46.12;36.26;68.42;;
77134;Laerm;25175;50.140;18.990;2024-01-15T04:38:52;50.16;36.97;73.12;;
77134;Laerm;25175;50.140;18.990;2024-01-15T04:41:58;45.29;36.93;67.49;;
77134;Laerm;25175;50.140;18.990;2024-01-15T04:45:07;40.77;36.68;53.19;;
77134;Laerm;25175;50.140;18.990;2024-01-15T04:48:13;41.87;36.27;59.91;;
77134;Laerm;25175;50.140;18.990;2024-01-15T04:51:19;43.46;37.36;65.48;;
77134;Laerm;25175;50.140;18.990;2024-01-15T04:54:27;47.65;37.45;67.54;;
77134;Laerm;25175;50.140;18.990;2024-01-15T04:57:35;50.03;37.23;72.39;;
77134;Laerm;25175;50.140;18.990;2024-01-15T05:00:45;50.30;37.11;73.68;;
77134;Laerm;25175;50.140;18.990;2024-01-15T05:03:49;46.22;36.99;67.57;;
77134;Laerm;25175;50.140;18.990;2024-01-15T05:06:57;51.31;37.32;76.79;;
77134;Laerm;25175;50.140;18.990;2024-01-15T05:10:03;47.37;36.98;68.30;;
77134;Laerm;25175;50.140;18.990;2024-01-15T05:13:13;43.26;36.75;63.98;;
77134;Laerm;25175;50.140;18.990;2024-01-15T05:16:20;46.71;36.86;66.48;;
77134;Laerm;25175;50.140;18.990;2024-01-15T05:19:26;43.32;36.52;64.49;;
77134;Laerm;25175;50.140;18.990;2024-01-15T05:22:31;42.31;36.92;62.83;;
77134;Laerm;25175;50.140;18.990;2024-01-15T05:25:39;46.78;36.99;66.94;;
77134;Laerm;25175;50.140;18.990;2024-01-15T05:28:48;49.49;36.98;72.01;;
77134;Laerm;25175;50.140;18.990;2024-01-15T05:31:56;45.80;37.31;65.31;;
77134;Laerm;25175;50.140;18.990;2024-01-15T05:35:00;47.77;36.77;70.05;;
77134;Laerm;25175;50.140;18.990;2024-01-15T05:38:10;48.36;37.37;72.60;;
77134;Laerm;25175;50.140;18.990;2024-01-15T05:41:15;49.80;37.82;71.66;;
77134;Laerm;25175;50.140;18.990;2024-01-15T05:44:21;48.56;37.56;69.29;;
77134;Laerm;25175;50.140;18.990;2024-01-15T05:47:30;51.95;38.69;75.16;;
77134;Laerm;25175;50.140;18.990;2024-01-15T05:50:43;51.23;38.33;73.78;;
77134;Laerm;25175;50.140;18.990;2024-01-15T05:53:48;52.27;38.37;75.52;;
77134;Laerm;25175;50.140;18.990;2024-01-15T05:56:54;50.80;38.54;75.99;;
77134;Laerm;25175;50.140;18.990;2024-01-15T06:00:00;51.72;38.30;73.35;;
77134;Laerm;25175;50.140;18.990;2024-01-15T06:03:46;48.65;37.79;72.64;;
77134;Laerm;25175;50.140;18.990;2024-01-15T06:06:51;52.54;37.73;75.46;;
77134;Laerm;25175;50.140;18.990;2024-01-15T06:09:59;47.80;38.07;69.91;;
77134;Laerm;25175;50.140;18.990;2024-01-15T06:13:05;52.97;38.57;74.95;;
77134;Laerm;25175;50.140;18.990;2024-01-15T06:16:17;51.91;37.74;74.62;;
77134;Laerm;25175;50.140;18.990;2024-01-15T06:19:25;50.58;37.99;72.33;;
77134;Laerm;25175;50.140;18.990;2024-01-15T06:22:33;51.60;38.19;77.49;;
77134;Laerm;25175;50.140;18.990;2024-01-15T06:25:42;47.09;38.23;68.79;;
77134;Laerm;25175;50.140;18.990;2024-01-15T06:28:50;49.67;38.61;74.52;;
77134;Laerm;25175;50.140;18.990;2024-01-15T06:31:56;49.98;38.90;73.11;;
77134;Laerm;25175;50.140;18.990;2024-01-15T06:35:09;49.46;39.11;72.59;;
77134;Laerm;25175;50.140;18.990;2024-01-15T06:38:17;44.22;38.56;60.72;;
77134;Laerm;25175;50.140;18.990;2024-01-15T06:41:23;52.03;39.30;75.30;;
77134;Laerm;25175;50.140;18.990;2024-01-15T06:44:30;49.98;39.09;71.98;;
77134;Laerm;25175;50.140;18.990;2024-01-15T06:47:40;54.39;39.31;79.38;;
77134;Laerm;25175;50.140;18.990;2024-01-15T06:50:49;49.03;39.39;69.42;;
77134;Laerm;25175;50.140;18.990;2024-01-15T06:53:56;48.50;37.66;68.02;;
77134;Laerm;25175;50.140;18.990;2024-01-15T06:57:01;43.48;37.11;56.86;;
77134;Laerm;25175;50.140;18.990;2024-01-15T07:00:08;43.88;38.21;63.62;;
77134;Laerm;25175;50.140;18.990;2024-01-15T07:03:14;46.43;38.12;68.80;;
77134;Laerm;25175;50.140;18.990;2024-01-15T07:06:24;48.29;37.46;74.12;;
77134;Laerm;25175;50.140;18.990;2024-01-15T07:09:30;42.66;38.11;62.72;;
77134;Laerm;25175;50.140;18.990;2024-01-15T07:12:38;43.64;36.96;62.64;;
77134;Laerm;25175;50.140;18.990;2024-01-15T07:15:47;43.57;38.15;58.72;;
77134;Laerm;25175;50.140;18.990;2024-01-15T07:18:54;42.65;37.58;57.78;;
77134;Laerm;25175;50.140;18.990;2024-01-15T07:22:10;43.72;37.08;63.13;;
77134;Laerm;25175;50.140;18.990;2024-01-15T07:25:16;42.40;37.45;54.37;;
77134;Laerm;25175;50.140;18.990;2024-01-15T07:28:21;43.17;37.82;54.01;;
77134;Laerm;25175;50.140;18.990;2024-01-15T07:31:28;44.46;38.02;66.80;;
77134;Laerm;25175;50.140;18.990;2024-01-15T07:34:40;45.91;38.35;72.99;;
77134;Laerm;25175;50.140;18.990;2024-01-15T07:37:53;48.00;39.05;67.37;;
77134;Laerm;25175;50.140;18.990;2024-01-15T07:41:01;43.68;38.01;56.49;;
77134;Laerm;25175;50.140;18.990;2024-01-15T07:44:07;44.35;38.08;58.10;;
77134;Laerm;25175;50.140;18.990;2024-01-15T07:47:12;41.37;37.81;55.33;;
77134;Laerm;25175;50.140;18.990;2024-01-15T07:50:19;50.70;37.80;76.44;;
77134;Laerm;25175;50.140;18.990;2024-01-15T07:53:29;47.94;38.43;69.26;;
77134;Laerm;25175;50.140;18.990;2024-01-15T07:56:54;44.99;37.86;65.14;;
77134;Laerm;25175;50.140;18.990;2024-01-15T07:59:59;42.93;36.86;59.98;;
77134;Laerm;25175;50.140;18.990;2024-01-15T08:03:10;54.25;37.95;81.41;;
77134;Laerm;25175;50.140;18.990;2024-01-15T08:06:28;48.16;37.58;71.96;;
77134;Laerm;25175;50.140;18.990;2024-01-15T08:09:37;47.52;41.63;59.50;;
77134;Laerm;25175;50.140;18.990;2024-01-15T08:12:44;49.81;43.66;67.53;;
77134;Laerm;25175;50.140;18.990;2024-01-15T08:15:52;51.52;44.79;74.69;;
77134;Laerm;25175;50.140;18.990;2024-01-15T08:18:59;49.67;43.88;61.38;;
77134;Laerm;25175;50.140;18.990;2024-01-15T08:22:04;49.04;43.50;60.77;;
77134;Laerm;25175;50.140;18.990;2024-01-15T08:25:13;49.64;43.86;60.74;;
77134;Laerm;25175;50.140;18.990;2024-01-15T08:28:22;49.36;43.19;66.12;;
77134;Laerm;25175;50.140;18.990;2024-01-15T08:31:27;52.55;39.77;77.56;;
77134;Laerm;25175;50.140;18.990;2024-01-15T08:34:36;47.45;41.82;67.60;;
77134;Laerm;25175;50.140;18.990;2024-01-15T08:37:41;47.07;40.43;65.03;;
77134;Laerm;25175;50.140;18.990;2024-01-15T08:40:52;46.26;40.56;61.59;;
77134;Laerm;25175;50.140;18.990;2024-01-15T08:43:58;48.60;42.24;69.22;;
77134;Laerm;25175;50.140;18.990;2024-01-15T08:47:07;47.19;41.85;66.69;;
77134;Laerm;25175;50.140;18.990;2024-01-15T08:50:12;49.69;40.21;74.22;;
77134;Laerm;25175;50.140;18.990;2024-01-15T08:53:19;46.48;39.12;63.75;;
77134;Laerm;25175;50.140;18.990;2024-01-15T08:56:31;52.25;40.52;77.22;;
77134;Laerm;25175;50.140;18.990;2024-01-15T08:59:47;51.74;41.06;78.20;;
77134;Laerm;25175;50.140;18.990;2024-01-15T09:02:53;52.13;41.70;75.40;;
77134;Laerm;25175;50.140;18.990;2024-01-15T09:06:01;46.75;38.16;71.84;;
77134;Laerm;25175;50.140;18.990;2024-01-15T09:09:10;48.08;36.50;71.05;;
77134;Laerm;25175;50.140;18.990;2024-01-15T09:12:19;44.55;37.94;58.81;;
77134;Laerm;25175;50.140;18.990;2024-01-15T09:15:25;49.18;38.04;72.71;;
77134;Laerm;25175;50.140;18.990;2024-01-15T09:18:30;48.36;38.06;72.91;;
77134;Laerm;25175;50.140;18.990;2024-01-15T09:21:35;54.76;37.94;77.95;;
77134;Laerm;25175;50.140;18.990;2024-01-15T09:24:49;52.52;38.96;75.15;;
77134;Laerm;25175;50.140;18.990;2024-01-15T09:27:58;47.61;37.81;65.28;;
77134;Laerm;25175;50.140;18.990;2024-01-15T09:31:04;45.02;37.18;59.72;;
77134;Laerm;25175;50.140;18.990;2024-01-15T09:34:09;44.50;37.57;55.43;;
77134;Laerm;25175;50.140;18.990;2024-01-15T09:37:16;47.55;38.32;71.12;;
77134;Laerm;25175;50.140;18.990;2024-01-15T09:40:21;48.29;38.77;68.94;;
77134;Laerm;25175;50.140;18.990;2024-01-15T09:43:30;54.78;37.50;72.64;;
77134;Laerm;25175;50.140;18.990;2024-01-15T09:46:35;45.67;37.95;65.03;;
77134;Laerm;25175;50.140;18.990;2024-01-15T09:49:43;52.66;38.27;68.02;;
77134;Laerm;25175;50.140;18.990;2024-01-15T09:52:49;44.83;37.70;59.53;;
77134;Laerm;25175;50.140;18.990;2024-01-15T09:55:58;43.24;38.17;56.43;;
77134;Laerm;25175;50.140;18.990;2024-01-15T09:59:06;45.68;37.51;67.96;;
77134;Laerm;25175;50.140;18.990;2024-01-15T10:02:16;46.60;39.38;66.95;;
77134;Laerm;25175;50.140;18.990;2024-01-15T10:05:20;46.83;39.07;68.99;;
77134;Laerm;25175;50.140;18.990;2024-01-15T10:08:26;45.21;37.26;62.30;;
77134;Laerm;25175;50.140;18.990;2024-01-15T10:11:31;54.36;37.98;84.17;;
77134;Laerm;25175;50.140;18.990;2024-01-15T10:14:41;53.00;38.46;77.71;;
77134;Laerm;25175;50.140;18.990;2024-01-15T10:17:46;48.31;38.71;69.27;;
77134;Laerm;25175;50.140;18.990;2024-01-15T10:20:52;51.32;37.89;72.00;;
77134;Laerm;25175;50.140;18.990;2024-01-15T10:23:57;47.48;38.12;70.56;;
77134;Laerm;25175;50.140;18.990;2024-01-15T10:27:06;46.83;38.02;62.83;;
77134;Laerm;25175;50.140;18.990;2024-01-15T10:30:14;50.72;38.37;75.31;;
77134;Laerm;25175;50.140;18.990;2024-01-15T10:33:22;51.31;38.21;73.38;;
77134;Laerm;25175;50.140;18.990;2024-01-15T10:36:30;48.43;38.52;72.06;;
77134;Laerm;25175;50.140;18.990;2024-01-15T10:39:37;44.33;37.66;63.65;;
77134;Laerm;25175;50.140;18.990;2024-01-15T10:42:44;55.90;40.08;83.21;;
77134;Laerm;25175;50.140;18.990;2024-01-15T10:45:52;52.96;38.21;74.68;;
77134;Laerm;25175;50.140;18.990;2024-01-15T10:48:57;56.04;39.10;80.85;;
77134;Laerm;25175;50.140;18.990;2024-01-15T10:52:04;45.49;37.45;68.41;;
77134;Laerm;25175;50.140;18.990;2024-01-15T10:55:10;58.12;38.99;78.46;;
77134;Laerm;25175;50.140;18.990;2024-01-15T10:58:16;45.72;38.37;63.51;;
77134;Laerm;25175;50.140;18.990;2024-01-15T11:01:26;56.81;38.73;79.75;;
77134;Laerm;25175;50.140;18.990;2024-01-15T11:04:33;51.95;38.56;74.56;;
77134;Laerm;25175;50.140;18.990;2024-01-15T11:07:40;46.30;38.46;68.21;;
77134;Laerm;25175;50.140;18.990;2024-01-15T11:10:47;50.33;37.92;74.88;;
77134;Laerm;25175;50.140;18.990;2024-01-15T11:13:53;46.81;38.55;69.57;;
77134;Laerm;25175;50.140;18.990;2024-01-15T11:17:02;54.51;40.58;75.77;;
77134;Laerm;25175;50.140;18.990;2024-01-15T11:20:07;56.31;38.98;78.22;;
77134;Laerm;25175;50.140;18.990;2024-01-15T11:23:42;46.99;39.57;66.39;;
77134;Laerm;25175;50.140;18.990;2024-01-15T11:26:47;48.83;37.71;66.60;;
77134;Laerm;25175;50.140;18.990;2024-01-15T11:30:06;52.88;38.88;76.99;;
77134;Laerm;25175;50.140;18.990;2024-01-15T11:33:35;48.04;38.54;69.13;;
77134;Laerm;25175;50.140;18.990;2024-01-15T11:37:01;46.66;38.53;62.91;;
77134;Laerm;25175;50.140;18.990;2024-01-15T11:40:10;51.33;39.31;74.87;;
77134;Laerm;25175;50.140;18.990;2024-01-15T11:43:18;47.33;39.03;66.99;;
77134;Laerm;25175;50.140;18.990;2024-01-15T11:46:38;47.88;38.62;69.81;;
77134;Laerm;25175;50.140;18.990;2024-01-15T11:50:06;47.94;38.83;71.34;;
77134;Laerm;25175;50.140;18.990;2024-01-15T11:53:32;51.16;37.84;75.17;;
77134;Laerm;25175;50.140;18.990;2024-01-15T11:56:39;49.27;38.27;74.36;;
77134;Laerm;25175;50.140;18.990;2024-01-15T11:59:44;54.41;38.85;80.13;;
77134;Laerm;25175;50.140;18.990;2024-01-15T12:02:52;50.31;38.64;73.50;;
77134;Laerm;25175;50.140;18.990;2024-01-15T12:06:00;51.94;38.43;77.84;;
77134;Laerm;25175;50.140;18.990;2024-01-15T12:09:08;49.58;37.88;73.68;;
77134;Laerm;25175;50.140;18.990;2024-01-15T12:12:27;56.88;38.09;80.84;;
77134;Laerm;25175;50.140;18.990;2024-01-15T12:15:34;47.27;38.54;66.56;;
77134;Laerm;25175;50.140;18.990;2024-01-15T12:18:41;48.70;38.92;62.55;;
77134;Laerm;25175;50.140;18.990;2024-01-15T12:21:51;53.75;39.04;79.09;;
77134;Laerm;25175;50.140;18.990;2024-01-15T12:24:55;48.30;38.04;70.85;;
77134;Laerm;25175;50.140;18.990;2024-01-15T12:28:01;45.73;38.09;66.48;;
77134;Laerm;25175;50.140;18.990;2024-01-15T12:31:06;44.67;38.55;65.99;;
77134;Laerm;25175;50.140;18.990;2024-01-15T12:34:11;48.06;38.72;69.21;;
77134;Laerm;25175;50.140;18.990;2024-01-15T12:37:21;50.31;38.61;72.39;;
77134;Laerm;25175;50.140;18.990;2024-01-15T12:40:27;49.69;38.35;70.92;;
77134;Laerm;25175;50.140;18.990;2024-01-15T12:43:32;44.85;39.16;59.60;;
77134;Laerm;25175;50.140;18.990;2024-01-15T12:46:37;48.11;37.90;71.37;;
77134;Laerm;25175;50.140;18.990;2024-01-15T12:49:42;44.69;37.94;58.91;;
77134;Laerm;25175;50.140;18.990;2024-01-15T12:52:50;50.27;37.84;71.88;;
77134;Laerm;25175;50.140;18.990;2024-01-15T12:55:55;44.44;37.78;63.80;;
77134;Laerm;25175;50.140;18.990;2024-01-15T12:59:00;48.47;37.70;69.94;;
77134;Laerm;25175;50.140;18.990;2024-01-15T13:02:06;44.36;38.15;62.25;;
77134;Laerm;25175;50.140;18.990;2024-01-15T13:05:12;48.05;37.98;70.17;;
77134;Laerm;25175;50.140;18.990;2024-01-15T13:08:19;44.09;37.25;55.04;;
77134;Laerm;25175;50.140;18.990;2024-01-15T13:11:28;48.55;37.36;70.14;;
77134;Laerm;25175;50.140;18.990;2024-01-15T13:14:32;47.91;37.72;73.06;;
77134;Laerm;25175;50.140;18.990;2024-01-15T13:17:38;45.66;37.37;63.35;;
77134;Laerm;25175;50.140;18.990;2024-01-15T13:20:43;45.20;37.33;64.38;;
77134;Laerm;25175;50.140;18.990;2024-01-15T13:23:51;49.18;37.72;75.39;;
77134;Laerm;25175;50.140;18.990;2024-01-15T13:26:55;45.68;36.76;60.16;;
77134;Laerm;25175;50.140;18.990;2024-01-15T13:30:06;44.13;37.28;58.85;;
77134;Laerm;25175;50.140;18.990;2024-01-15T13:33:10;45.55;37.71;58.42;;
77134;Laerm;25175;50.140;18.990;2024-01-15T13:36:16;51.42;37.41;76.90;;
77134;Laerm;25175;50.140;18.990;2024-01-15T13:39:25;45.70;38.03;63.99;;
77134;Laerm;25175;50.140;18.990;2024-01-15T13:42:35;45.21;37.47;64.68;;
77134;Laerm;25175;50.140;18.990;2024-01-15T13:45:41;44.41;37.43;57.00;;
77134;Laerm;25175;50.140;18.990;2024-01-15T13:48:48;45.41;38.53;64.55;;
77134;Laerm;25175;50.140;18.990;2024-01-15T13:51:52;50.50;37.30;75.37;;
77134;Laerm;25175;50.140;18.990;2024-01-15T13:55:00;46.61;37.50;65.14;;
77134;Laerm;25175;50.140;18.990;2024-01-15T13:58:05;46.69;38.05;63.14;;
77134;Laerm;25175;50.140;18.990;2024-01-15T14:01:11;46.23;37.96;61.77;;
77134;Laerm;25175;50.140;18.990;2024-01-15T14:04:15;47.18;38.80;62.91;;
77134;Laerm;25175;50.140;18.990;2024-01-15T14:07:21;46.29;37.89;62.26;;
77134;Laerm;25175;50.140;18.990;2024-01-15T14:10:29;47.97;37.76;69.59;;
77134;Laerm;25175;50.140;18.990;2024-01-15T14:13:34;46.26;37.86;67.27;;
77134;Laerm;25175;50.140;18.990;2024-01-15T14:16:42;47.82;37.62;66.85;;
77134;Laerm;25175;50.140;18.990;2024-01-15T14:19:51;45.86;37.75;65.23;;
77134;Laerm;25175;50.140;18.990;2024-01-15T14:22:55;46.22;38.21;64.23;;
77134;Laerm;25175;50.140;18.990;2024-01-15T14:26:03;45.51;37.34;64.94;;
77134;Laerm;25175;50.140;18.990;2024-01-15T14:29:08;45.00;36.69;58.74;;
77134;Laerm;25175;50.140;18.990;2024-01-15T14:32:13;43.53;36.96;53.46;;
77134;Laerm;25175;50.140;18.990;2024-01-15T14:35:20;44.57;37.37;60.92;;
77134;Laerm;25175;50.140;18.990;2024-01-15T14:38:25;46.21;37.66;66.61;;
77134;Laerm;25175;50.140;18.990;2024-01-15T14:41:32;43.53;37.56;53.78;;
77134;Laerm;25175;50.140;18.990;2024-01-15T14:44:40;45.86;37.70;65.80;;
77134;Laerm;25175;50.140;18.990;2024-01-15T14:47:46;44.79;38.02;63.88;;
77134;Laerm;25175;50.140;18.990;2024-01-15T14:50:51;45.68;37.12;64.04;;
77134;Laerm;25175;50.140;18.990;2024-01-15T14:53:56;45.76;37.37;60.23;;
77134;Laerm;25175;50.140;18.990;2024-01-15T14:57:05;45.17;37.19;58.37;;
77134;Laerm;25175;50.140;18.990;2024-01-15T15:00:11;44.04;37.75;61.82;;
77134;Laerm;25175;50.140;18.990;2024-01-15T15:03:19;44.20;37.83;55.14;;
77134;Laerm;25175;50.140;18.990;2024-01-15T15:06:23;45.73;37.39;58.87;;
77134;Laerm;25175;50.140;18.990;2024-01-15T15:09:30;46.60;37.30;66.71;;
77134;Laerm;25175;50.140;18.990;2024-01-15T15:12:37;43.89;37.19;53.43;;
77134;Laerm;25175;50.140;18.990;2024-01-15T15:15:43;43.87;37.18;56.33;;
77134;Laerm;25175;50.140;18.990;2024-01-15T15:18:47;45.53;37.82;62.63;;
77134;Laerm;25175;50.140;18.990;2024-01-15T15:21:53;46.32;37.20;66.36;;
77134;Laerm;25175;50.140;18.990;2024-01-15T15:24:59;44.60;37.55;59.65;;
77134;Laerm;25175;50.140;18.990;2024-01-15T15:28:08;44.46;36.77;61.56;;
77134;Laerm;25175;50.140;18.990;2024-01-15T15:31:16;46.34;37.52;70.08;;
77134;Laerm;25175;50.140;18.990;2024-01-15T15:34:21;44.95;37.06;62.81;;
77134;Laerm;25175;50.140;18.990;2024-01-15T15:37:27;44.18;37.49;61.39;;
77134;Laerm;25175;50.140;18.990;2024-01-15T15:40:32;49.93;37.67;74.61;;
77134;Laerm;25175;50.140;18.990;2024-01-15T15:43:39;43.73;37.52;58.42;;
77134;Laerm;25175;50.140;18.990;2024-01-15T15:46:45;45.96;37.54;68.97;;
77134;Laerm;25175;50.140;18.990;2024-01-15T15:49:49;51.87;36.76;75.82;;
77134;Laerm;25175;50.140;18.990;2024-01-15T15:52:58;46.21;36.99;66.18;;
77134;Laerm;25175;50.140;18.990;2024-01-15T15:56:05;44.27;36.80;68.59;;
77134;Laerm;25175;50.140;18.990;2024-01-15T15:59:15;44.14;37.35;58.22;;
77134;Laerm;25175;50.140;18.990;2024-01-15T16:02:20;43.29;36.54;66.03;;
77134;Laerm;25175;50.140;18.990;2024-01-15T16:05:25;44.73;37.09;58.35;;
77134;Laerm;25175;50.140;18.990;2024-01-15T16:08:30;44.05;37.05;59.55;;
77134;Laerm;25175;50.140;18.990;2024-01-15T16:11:35;45.09;35.91;66.41;;
77134;Laerm;25175;50.140;18.990;2024-01-15T16:14:44;45.41;36.72;62.52;;
77134;Laerm;25175;50.140;18.990;2024-01-15T16:17:51;46.36;37.36;65.81;;
77134;Laerm;25175;50.140;18.990;2024-01-15T16:20:56;41.82;36.23;55.13;;
77134;Laerm;25175;50.140;18.990;2024-01-15T16:24:02;43.54;36.60;61.29;;
77134;Laerm;25175;50.140;18.990;2024-01-15T16:27:08;43.23;36.34;55.53;;
77134;Laerm;25175;50.140;18.990;2024-01-15T16:30:18;41.85;36.53;56.50;;
77134;Laerm;25175;50.140;18.990;2024-01-15T16:33:24;45.68;35.77;66.03;;
77134;Laerm;25175;50.140;18.990;2024-01-15T16:36:29;45.00;37.17;64.10;;
77134;Laerm;25175;50.140;18.990;2024-01-15T16:39:34;51.95;37.00;78.90;;
77134;Laerm;25175;50.140;18.990;2024-01-15T16:42:39;47.65;36.50;69.08;;
77134;Laerm;25175;50.140;18.990;2024-01-15T16:45:48;48.48;36.78;72.39;;
77134;Laerm;25175;50.140;18.990;2024-01-15T16:48:54;44.51;36.89;62.89;;
77134;Laerm;25175;50.140;18.990;2024-01-15T16:51:59;46.18;36.30;67.04;;
77134;Laerm;25175;50.140;18.990;2024-01-15T16:55:07;43.06;36.79;59.78;;
77134;Laerm;25175;50.140;18.990;2024-01-15T16:58:11;46.89;36.21;64.54;;
77134;Laerm;25175;50.140;18.990;2024-01-15T17:01:21;43.31;36.96;60.51;;
77134;Laerm;25175;50.140;18.990;2024-01-15T17:04:25;46.95;36.39;69.52;;
77134;Laerm;25175;50.140;18.990;2024-01-15T17:07:33;48.05;36.81;75.00;;
77134;Laerm;25175;50.140;18.990;2024-01-15T17:10:37;47.37;36.82;73.03;;
77134;Laerm;25175;50.140;18.990;2024-01-15T17:13:43;46.30;36.69;68.76;;